Historyczne dane pomiarowe

Dodano dane terminowe – wersja testowa.

Dane z okresu 1951-2019

Wersja bazy: 1.34 [2019-03-16, lista zmian], aktualizacja planowana na 2019-04-15

Dane meteo z obszaru Polski uzyskane na podstawie danych udostępnionych przez Instytut Meteorologii i Gospodarki Wodnej – Państwowy Instytut Badawczy.

 

Wybierz Datę:    

       

TemperaturaWilgotnośćWiatrCiśnienieOpadyŚniegCzas trwania zjawisk
 Stacja t tx tn tng RH VA  wxwx mslp ppp RRR   cm mm wxwxwxwxwxwxwx
1961-08-14 14.4 18.4 9.5 8.6-- 6.7 2.3---- 0.4------------
1961-08-13 14.0 18.5 9.1 7.8-- 3.7 2.0---- 0.0------------
1961-08-12 15.9 20.8 14.4 12.2-- 6.0 1.3---- 0.1------------
1961-08-11 16.8 21.2 14.3 13.2-- 7.3 0.7---- 2.5------------
1961-08-10 17.7 22.5 12.5 11.0-- 7.0 2.0---- 16.1------------
1961-08-09 18.5 24.1 13.6 11.6-- 2.7 1.3---- 0.0------------
1961-08-08 17.0 19.7 8.4 6.5-- 4.0 1.0---- 0.1------------
1961-08-07 14.6 21.0 12.8 13.5-- 5.7 2.0---- 0.7------------
1961-08-06 19.5 26.9 15.5 14.6-- 3.3 2.3---- 10.1------------
1961-08-05 18.9 23.9 13.5 11.9-- 5.7 3.0---- 0.0------------
1961-08-04 14.4 15.5 8.5 7.2-- 8.0 2.0---- 0.6------------
1961-08-03 13.2 18.1 10.7 10.5-- 5.0 1.0---- 0.3------------
1961-08-02 16.3 20.0 9.8 8.5-- 7.3 2.0---- 0.3------------
1961-08-01 14.1 19.2 9.9 9.5-- 5.0 2.3---- 0.0------------
1961-07-31 13.9 15.7 8.8 8.7-- 8.0 2.0---- 15.0------------
1961-07-30 15.3 17.2 8.9 6.2-- 7.0 1.7---- 0.0------------
1961-07-29 13.4 16.2 10.1 8.2-- 7.0 1.0---- 0.8------------
1961-07-28 13.5 16.7 11.1 11.0-- 8.0 1.0---- 2.4------------
1961-07-27 16.3 20.7 14.0 12.9-- 7.3 2.7---- 6.4------------
1961-07-26 18.1 22.4 13.7 13.1-- 8.0 3.3---- 2.4------------
1961-07-25 15.1 18.4 11.0 9.7-- 8.0 1.7---- 0.0------------
1961-07-24 13.7 17.5 11.8 11.2-- 7.3 2.7---- 0.0------------
1961-07-23 14.8 17.7 12.3 12.0-- 7.7 2.0---- 0.4------------
1961-07-22 14.5 17.0 12.8 11.7-- 8.0 2.3---- 0.0------------
1961-07-21 14.2 17.5 12.9 13.0-- 7.7 2.0---- 20.5------------
1961-07-20 15.2 19.0 12.3 10.6-- 8.0 2.7---- 6.4------------
1961-07-19 16.0 20.5 10.6 9.3-- 5.7 3.0---- 0.0------------
1961-07-18 14.8 18.7 10.8 9.6-- 6.3 2.7---- 5.1------------
1961-07-17 13.9 16.5 8.6 8.0-- 7.0 2.3---- 0.8------------
1961-07-16 15.9 22.7 12.3 12.9-- 3.0 0.7---- 2.1------------
1961-07-15 17.4 22.4 11.9 10.5-- 5.7 2.0---- 0.3------------
1961-07-14 13.8 19.6 11.2 11.6-- 7.7 2.7---- 1.5------------
1961-07-13 17.9 25.2 15.6 14.1-- 7.3 3.0---- 2.8------------
1961-07-12 19.2 24.2 12.8 11.0-- 3.7 0.7---- 0.0------------
1961-07-11 16.5 19.5 10.5 9.2-- 7.0 1.7---- 7.2------------
1961-07-10 12.9 18.0 10.3 9.7-- 5.7 2.0---- 1.4------------
1961-07-09 14.7 19.0 12.9 13.4-- 8.0 2.0---- 11.3------------
1961-07-08 15.8 20.9 9.3 8.0-- 8.0 2.3---- 12.0------------
1961-07-07 12.9 16.8 9.3 8.0-- 6.7 2.0---- 0.0------------
1961-07-06 13.4 19.7 7.9 7.0-- 7.0 2.3---- 5.9------------
1961-07-05 12.2 16.9 10.2 8.5-- 7.0 4.3---- 0.2------------
1961-07-04 14.9 17.7 12.0 11.4-- 7.7 2.3---- 9.0------------
1961-07-03 22.1 31.8 17.2 15.4-- 5.7 2.7---- 4.0------------
1961-07-02 24.8 31.6 16.6 15.3-- 0.0 1.0---- 0.0------------
1961-07-01 19.5 28.0 12.4 10.8-- 0.0 0.7---- 0.0------------
1961-06-30 19.0 25.4 9.9 9.0-- 0.7 0.3---- 0.0------------
1961-06-29 17.2 22.6 10.3 8.5-- 1.7 2.0---- 0.0------------
1961-06-28 15.6 20.2 11.1 9.6-- 6.7 3.3---- 0.0------------
1961-06-27 19.7 24.8 17.3 16.5-- 7.0 5.0---- 0.1------------
1961-06-26 22.0 28.8 12.3 10.3-- 0.7 1.3---- 0.0------------
1961-06-25 20.6 27.8 12.3 11.6-- 2.3 2.3---- 0.0------------
1961-06-24 18.8 24.1 12.3 10.7-- 4.0 2.3---- 0.0------------
1961-06-23 17.3 21.9 8.2 10.6-- 4.0 3.3---- 0.0------------
1961-06-22 16.5 22.5 8.2 6.6-- 1.7 3.7---- 0.0------------
1961-06-21 12.0 19.4 8.1 11.0-- 3.3 1.3---- 0.0------------
1961-06-20 13.6 19.9 8.0 6.5-- 1.0 2.0---- 0.0------------
1961-06-19 15.2 20.2 11.8 11.4-- 2.3 2.3---- 0.0------------
1961-06-18 19.8 25.8 14.9 13.4-- 4.7 2.0---- 0.2------------
1961-06-17 18.1 23.1 9.8 8.6-- 2.7 2.3---- 0.0------------
1961-06-16 12.6 19.2 10.8 10.0-- 4.7 1.3---- 0.0------------
328.2 ms

 

Źródłem pochodzenia danych jest Instytut Meteorologii i Gospodarki Wodnej – Państwowy Instytut Badawczy. Dane Instytutu Meteorologii i Gospodarki Wodnej – Państwowego Instytutu Badawczego zostały przetworzone.

Dane źródłowe można odnaleźć na stronie https://dane.imgw.pl